createdAt,value
2022-08-30T00:01:22.875Z,78.686939995843
2022-08-30T00:04:16.408Z,78.93645514723043
2022-08-30T00:07:16.326Z,79.39519879496362
2022-08-30T00:11:18.448Z,79.22574526114937
2022-08-30T00:14:16.238Z,79.97353058058133
2022-08-30T00:17:16.756Z,80.53458944542432
2022-08-30T00:21:16.065Z,80.05130764423028
2022-08-30T00:24:16.008Z,79.96563864604869
2022-08-30T00:27:16.264Z,79.96723765663242
2022-08-30T00:31:16.833Z,79.96381452993634
2022-08-30T00:34:17.011Z,79.98089185376725
2022-08-30T00:37:17.091Z,80.53856578219607
2022-08-30T00:41:16.618Z,81.25848284493176
2022-08-30T00:44:17.124Z,81.56198472133211
2022-08-30T00:47:17.775Z,80.33991731448022
2022-08-30T00:51:18.048Z,79.74979291612208
2022-08-30T00:54:18.160Z,79.93899561895557
2022-08-30T00:57:17.830Z,79.77644421249114
2022-08-30T01:01:17.330Z,80.3917295783805
2022-08-30T01:04:18.359Z,81.25064108481357
2022-08-30T01:07:17.229Z,81.56718499479652
2022-08-30T01:11:19.836Z,80.67298300158726
2022-08-30T01:14:17.792Z,80.85990903895596
2022-08-30T01:17:17.880Z,81.36912593562698
2022-08-30T01:21:22.396Z,81.33585762863753
2022-08-30T01:24:18.461Z,81.53003856414392
2022-08-30T01:27:17.760Z,80.8229046943799
2022-08-30T01:31:16.836Z,80.4534927935453
2022-08-30T01:34:17.374Z,80.08752371124962
2022-08-30T01:37:24.124Z,81.74148921765622
2022-08-30T01:41:19.283Z,82.13728526066654
2022-08-30T01:44:17.219Z,81.38633459216834
2022-08-30T01:47:18.255Z,82.18992231015633
2022-08-30T01:52:00.961Z,82.40160906270391
2022-08-30T01:54:16.220Z,83.43015936730751
2022-08-30T01:57:20.405Z,83.14771128910319
2022-08-30T02:21:17.759Z,84.25527312988194
2022-08-30T02:41:45.720Z,84.25171973180935
2022-08-30T02:44:46.080Z,84.56595836605494
2022-08-30T02:47:57.401Z,84.62355812873274
2022-08-30T09:31:19.551Z,62.509429358478656
2022-08-30T09:34:18.623Z,62.44643148683471
2022-08-30T09:37:26.150Z,61.73766978169082
2022-08-30T09:41:37.370Z,61.619731052847854
2022-08-30T09:44:18.246Z,61.894924333304346
2022-08-30T09:47:24.051Z,59.76931931930611
2022-08-30T09:51:35.079Z,57.805516040356906
2022-08-30T09:54:25.503Z,58.8455872542472
2022-08-30T09:57:33.516Z,58.54404889444652
2022-08-30T10:01:22.998Z,55.761445043539226
2022-08-30T10:04:21.381Z,56.988834755920216
2022-08-30T10:31:23.986Z,54.22777197890494
2022-08-30T10:51:27.020Z,50.08233936187883
2022-08-30T10:54:22.692Z,50.07354378591653
2022-08-30T10:57:16.967Z,49.04628053112329
2022-08-30T11:01:31.495Z,46.04898993837777
2022-08-30T11:04:51.280Z,46.35019159891708
2022-08-30T11:07:31.246Z,45.808087759357704
2022-08-30T11:11:26.585Z,46.78897221763898
2022-08-30T11:21:20.686Z,46.24910632001535
2022-08-30T11:24:18.187Z,45.71252278749548
2022-08-30T11:27:41.771Z,44.80906184360796
2022-08-30T11:31:32.885Z,43.01741485193829
2022-08-30T11:34:54.046Z,43.0473068635001
2022-08-30T11:37:32.744Z,41.1578958398311
2022-08-30T11:41:32.296Z,41.16953388220088
2022-08-30T11:44:31.427Z,41.34718037653547
2022-08-30T11:47:50.980Z,38.98125384920503
2022-08-30T11:52:27.433Z,38.78995612736411
2022-08-30T11:54:32.309Z,37.97120039440555
2022-08-30T11:57:28.219Z,39.73829163435533
2022-08-30T12:01:42.206Z,37.62894017915913
2022-08-30T12:21:44.932Z,36.97911753597371
2022-08-30T12:24:22.700Z,38.47195539346963
2022-08-30T12:27:23.420Z,36.507956134219135
2022-08-30T12:41:19.794Z,36.29773377460948
2022-08-30T12:51:49.581Z,33.76071511150254
2022-08-30T13:01:24.397Z,32.631923099297154
2022-08-30T13:11:29.343Z,32.79770641624919
2022-08-30T13:21:22.676Z,31.68946298361856
2022-08-30T13:31:17.350Z,30.6234274106783
2022-08-30T13:41:17.177Z,29.359333532223715
2022-08-30T13:51:16.059Z,31.65146276942129
2022-08-30T14:01:16.841Z,32.50767982228421
2022-08-30T14:11:19.107Z,30.89600439267254
2022-08-30T14:21:16.885Z,32.502579920780214
2022-08-30T14:31:17.017Z,34.0853624985009
2022-08-30T14:41:16.263Z,34.34871639379894
2022-08-30T14:51:19.685Z,34.40622673671148
2022-08-30T15:01:17.574Z,36.49637786153111
2022-08-30T15:11:20.041Z,34.81121159324224
2022-08-30T15:21:23.149Z,35.88207974979511
2022-08-30T16:01:18.226Z,36.0037559762919
2022-08-30T16:41:21.645Z,34.611055851632415
2022-08-30T16:44:17.887Z,34.6708601466632
2022-08-30T16:47:17.310Z,34.112442935653945
2022-08-30T16:51:23.766Z,35.30529372303697
2022-08-30T16:54:17.837Z,35.240790135965035
2022-08-30T16:57:16.896Z,35.712041654897575
2022-08-30T17:01:19.543Z,35.209002923863764
2022-08-30T17:04:19.312Z,34.842819801314356
2022-08-30T17:07:22.418Z,35.09428306129671
2022-08-30T17:11:16.418Z,35.56461671299376
2022-08-30T17:14:21.546Z,36.15678745803605
2022-08-30T17:17:17.264Z,35.98085625439161
2022-08-30T17:21:16.131Z,36.38861486106597
2022-08-30T17:24:16.516Z,36.30076399235241
2022-08-30T17:27:16.659Z,37.218877714403675
2022-08-30T17:31:18.290Z,38.00885084030584
2022-08-30T17:34:18.687Z,37.957018651106594
2022-08-30T17:37:20.511Z,38.407119281740016
2022-08-30T17:41:17.085Z,38.692059488157575
2022-08-30T17:44:18.177Z,37.769396039610996
2022-08-30T17:47:17.181Z,37.69416972569364
2022-08-30T17:51:16.576Z,37.365567527433434
2022-08-30T18:01:17.738Z,39.044708395538116
2022-08-30T18:04:19.776Z,39.192863174042124
2022-08-30T18:07:17.095Z,39.53544075149722
2022-08-30T18:11:17.153Z,39.06992000512053
2022-08-30T18:14:17.379Z,40.01409633266001
2022-08-30T18:17:17.440Z,40.514903979455624
2022-08-30T18:21:18.325Z,41.49937723684637
2022-08-30T18:24:17.739Z,42.29430731867186
2022-08-30T18:28:45.547Z,42.76521827412453
2022-08-30T18:31:16.290Z,43.747353197523054
2022-08-30T18:34:16.805Z,44.041526133332916
2022-08-30T18:37:18.900Z,44.528642817766936
2022-08-30T18:41:17.026Z,44.93371868240413
2022-08-30T18:44:27.782Z,45.49039992303826
2022-08-30T18:47:17.345Z,45.25477759425342
2022-08-30T18:51:20.149Z,46.11060923925418
2022-08-30T18:54:17.123Z,45.99326348328159
2022-08-30T18:57:17.260Z,46.58385920628282
2022-08-30T19:01:22.165Z,46.402425227872556
2022-08-30T19:04:34.977Z,46.63035755712839
2022-08-30T19:07:19.454Z,46.63518263391804
2022-08-30T19:11:16.553Z,47.44152223742554
2022-08-30T19:14:17.126Z,47.376727927386824
2022-08-30T19:17:16.761Z,48.25923112761975
2022-08-30T19:21:16.222Z,47.87346084978675
2022-08-30T19:24:17.881Z,48.3394414585661
2022-08-30T19:27:18.121Z,49.163645265406466
2022-08-30T19:51:48.608Z,50.52041466311253
2022-08-30T19:54:48.756Z,50.221246202581426
2022-08-30T19:57:50.182Z,50.47168543384796
2022-08-30T20:01:20.410Z,51.32715178312935
2022-08-30T20:04:16.919Z,51.88554662136886
2022-08-30T20:07:25.238Z,52.0889091655273
2022-08-30T20:11:18.563Z,52.864062960284144
2022-08-30T20:21:16.812Z,53.43323193881997
2022-08-30T21:11:18.298Z,57.418341985157944
2022-08-30T21:14:17.772Z,57.45777134720297
2022-08-30T21:21:20.167Z,58.46066369766722
2022-08-30T21:24:16.994Z,58.688545946419644
2022-08-30T21:27:17.892Z,58.631071717343566
2022-08-30T21:41:15.892Z,60.152961745936665
2022-08-30T21:44:19.188Z,60.64728900571867
2022-08-30T21:47:19.889Z,60.7310249478022
2022-08-30T21:51:17.476Z,60.92565403359325
2022-08-30T21:54:17.977Z,61.24754336567807
2022-08-30T21:57:17.309Z,61.31634291843884
2022-08-30T22:01:20.161Z,61.92604752323027
2022-08-30T22:04:17.665Z,62.3159831133633
2022-08-30T22:07:17.049Z,62.412556681753536
2022-08-30T22:11:19.886Z,62.28564624674727
2022-08-30T22:14:17.079Z,62.17571914614544
2022-08-30T22:17:16.918Z,62.81697393606378
2022-08-30T22:21:20.394Z,63.46187895224403
2022-08-30T22:24:16.888Z,63.74428482857459
2022-08-30T22:27:16.546Z,64.99383039339523
2022-08-30T22:31:17.816Z,64.30089081449638
2022-08-30T22:34:16.951Z,64.44312761084836
2022-08-30T22:37:16.740Z,64.55058892936933
2022-08-30T22:41:19.093Z,64.36379279187847
2022-08-30T22:44:18.210Z,64.84548156364347
2022-08-30T22:47:16.950Z,64.50148595388464
2022-08-30T22:51:20.011Z,65.42810180795591
2022-08-30T22:54:16.913Z,65.66871170617289
2022-08-30T22:57:19.783Z,65.56114338099258
2022-08-30T23:01:20.752Z,65.49499374572885
2022-08-30T23:04:16.876Z,65.73413848898062
2022-08-30T23:07:16.818Z,65.81963905208438
2022-08-30T23:11:16.979Z,65.77407472289964
2022-08-30T23:14:17.051Z,66.00905225601309
2022-08-30T23:17:17.039Z,66.13970921944352
2022-08-30T23:21:18.796Z,66.40614112771559
